Medical Lake, WA (99022)

10:48 AM PST on December 08, 2016 (GMT -0800)
Medical Lake Silver Lake | | Change Station

Elev 2418 ft 47.56 °N, 117.68 °W | Updated 6 minutes ago

Partly Cloudy
Partly Cloudy
18.9 °F
Feels Like 6 °F
N
13.0
Wind Variable Wind from NE
Gusts 19.0 mph

Today
High -- | Low -- °F
--% Chance of Precip.
Yesterday
High -- | Low -- °F
Precip. -- in
Pressure 30.22 in
Visibility 10.0 miles
Clouds Few 19000 ft
Windchill 6 °F
Dew Point 10 °F
Humidity 67%
Rainfall 0.00 in
Snow Depth Not available.
7:26 AM 3:59 PM
Waxing Gibbous, 65% visible
SPECI KSKA 081841Z 06015KT 10SM FEW190 M07/M15 A3022 RMK AO2A
Pressure 30.22 in
Visibility 10.0 miles
Clouds Few 19000 ft
Windchill 6 °F
Dew Point 10 °F
Humidity 67%
Rainfall 0.00 in
Snow Depth Not available.
7:26 AM 3:59 PM
Waxing Gibbous, 65% visible
SPECI KSKA 081841Z 06015KT 10SM FEW190 M07/M15 A3022 RMK AO2A

10-Day Weather Forecast

Almanac

Astronomy

Dec. 08, 2016 Rise Set
Actual Time
Civil Twilight
Nautical Twilight
Astronomical Twilight
Moon
Length of Visible Light
Length of Day
Tomorrow will be .
, % of the Moon is Illuminated

Today's Extremes

State Highs State Lows

Community

WunderPhotos

Upload Photos

1,956,277 photos uploaded!

WunderBlog® & News

Nearby

Air Quality

  Air Quality AQ Index Pollutant
Not available.

Snow Depth

Station Depth Elevation

Earthquake Activity

City Distance Mag. Time & Date
Minimum magnitude displayed is 2.5.

Coastal Water Temperatures

Place Temperature

Stations

Nearby Weather Stations

Station Location Temp. Windchill Dew Point Humidity Wind Precip. Elev Updated Type
                   

Watches & Warnings

There are currently no watches in effect.